DASGK LOWI-EDDM
Flight info
| Callsign | DASGK |
|---|---|
| Flight time | 0h 20m |
| Altitude | 16000 |
| Route | ADILO2J ADILO Y703 MOGTI P66 NESES/N0377F150 T103 BETOS BETOS1A |
| Aircraft | A320/M-SDE3FGHIRWY/LB1 |
Departure
| Time | 2026-04-30 02:57 |
|---|---|
| Airport | Innsbruck Airport (LOWI) |
Arrival
| Time | 2026-04-30 03:17 |
|---|---|
| Airport | Munich Airport (EDDM) |
| Time | Latitude | Longitude | Altitude | Speed | Heading |
|---|---|---|---|---|---|
| 2026-04-30 02:43 | 47.25824 | 11.35051 | 1915 ft | 0 kts | 171° |
| 2026-04-30 02:50 | 47.25846 | 11.35046 | 1915 ft | 4 kts | 171° |
| 2026-04-30 02:50 | 47.25873 | 11.35039 | 1915 ft | 4 kts | 171° |
| 2026-04-30 02:50 | 47.25883 | 11.35037 | 1915 ft | 0 kts | 171° |
| 2026-04-30 02:52 | 47.25882 | 11.35037 | 1915 ft | 1 kts | 171° |
| 2026-04-30 02:53 | 47.25875 | 11.35029 | 1915 ft | 1 kts | 237° |
| 2026-04-30 02:53 | 47.25870 | 11.34981 | 1915 ft | 8 kts | 261° |
| 2026-04-30 02:53 | 47.25861 | 11.34900 | 1915 ft | 8 kts | 261° |
| 2026-04-30 02:53 | 47.25851 | 11.34810 | 1915 ft | 10 kts | 261° |
| 2026-04-30 02:54 | 47.25841 | 11.34702 | 1915 ft | 11 kts | 262° |
| 2026-04-30 02:54 | 47.25828 | 11.34583 | 1915 ft | 12 kts | 261° |
| 2026-04-30 02:54 | 47.25815 | 11.34458 | 1915 ft | 13 kts | 261° |
| 2026-04-30 02:54 | 47.25800 | 11.34322 | 1915 ft | 14 kts | 261° |
| 2026-04-30 02:55 | 47.25783 | 11.34177 | 1915 ft | 15 kts | 261° |
| 2026-04-30 02:55 | 47.25772 | 11.34021 | 1915 ft | 16 kts | 274° |
| 2026-04-30 02:55 | 47.25811 | 11.33873 | 1915 ft | 16 kts | 303° |
| 2026-04-30 02:55 | 47.25883 | 11.33739 | 1915 ft | 17 kts | 307° |
| 2026-04-30 02:56 | 47.25928 | 11.33664 | 1915 ft | 2 kts | 343° |
| 2026-04-30 02:56 | 47.25934 | 11.33671 | 1915 ft | 1 kts | 50° |
| 2026-04-30 02:56 | 47.25971 | 11.33976 | 1915 ft | 83 kts | 80° |
| 2026-04-30 02:56 | 47.26121 | 11.35307 | 2012 ft | 165 kts | 82° |
| 2026-04-30 02:57 | 47.26298 | 11.36993 | 3103 ft | 170 kts | 82° |
| 2026-04-30 02:57 | 47.26482 | 11.38761 | 4284 ft | 179 kts | 84° |
| 2026-04-30 02:57 | 47.26663 | 11.40627 | 5079 ft | 185 kts | 85° |
| 2026-04-30 02:57 | 47.26815 | 11.42479 | 6111 ft | 179 kts | 84° |
| 2026-04-30 02:58 | 47.27003 | 11.44252 | 7117 ft | 173 kts | 77° |
| 2026-04-30 02:58 | 47.27370 | 11.45947 | 7986 ft | 174 kts | 75° |
| 2026-04-30 02:58 | 47.27336 | 11.47725 | 8708 ft | 180 kts | 111° |
| 2026-04-30 02:58 | 47.26843 | 11.48744 | 9225 ft | 184 kts | 135° |
| 2026-04-30 02:59 | 47.25691 | 11.49615 | 9964 ft | 193 kts | 166° |
| 2026-04-30 02:59 | 47.24348 | 11.49419 | 10668 ft | 201 kts | 201° |
| 2026-04-30 02:59 | 47.23269 | 11.48056 | 11238 ft | 214 kts | 239° |
| 2026-04-30 02:59 | 47.22927 | 11.45163 | 11982 ft | 227 kts | 276° |
| 2026-04-30 03:00 | 47.23013 | 11.43563 | 12357 ft | 237 kts | 277° |
| 2026-04-30 03:00 | 47.23078 | 11.41061 | 12844 ft | 259 kts | 274° |
| 2026-04-30 03:00 | 47.23355 | 11.38375 | 13524 ft | 274 kts | 288° |
| 2026-04-30 03:00 | 47.24026 | 11.35653 | 14081 ft | 295 kts | 295° |
| 2026-04-30 03:01 | 47.24869 | 11.32742 | 14426 ft | 323 kts | 297° |
| 2026-04-30 03:01 | 47.26211 | 11.29980 | 14757 ft | 343 kts | 319° |
| 2026-04-30 03:01 | 47.28281 | 11.28133 | 15175 ft | 358 kts | 341° |
| 2026-04-30 03:01 | 47.30774 | 11.27575 | 15635 ft | 371 kts | 2° |
| 2026-04-30 03:02 | 47.33387 | 11.27970 | 16061 ft | 385 kts | 8° |
| 2026-04-30 03:02 | 47.36078 | 11.28555 | 16330 ft | 395 kts | 8° |
| 2026-04-30 03:02 | 47.38827 | 11.29037 | 16346 ft | 401 kts | 6° |
| 2026-04-30 03:02 | 47.41633 | 11.29329 | 16344 ft | 407 kts | 3° |
| 2026-04-30 03:03 | 47.44180 | 11.29491 | 16337 ft | 408 kts | 2° |
| 2026-04-30 03:03 | 47.49645 | 11.29833 | 16347 ft | 408 kts | 3° |
| 2026-04-30 03:03 | 47.52475 | 11.30081 | 16346 ft | 408 kts | 4° |
| 2026-04-30 03:04 | 47.55306 | 11.30363 | 16345 ft | 408 kts | 4° |
| 2026-04-30 03:04 | 47.58136 | 11.30643 | 16345 ft | 407 kts | 4° |
| 2026-04-30 03:04 | 47.60960 | 11.30904 | 16348 ft | 407 kts | 4° |
| 2026-04-30 03:04 | 47.63789 | 11.31148 | 16347 ft | 407 kts | 4° |
| 2026-04-30 03:05 | 47.66622 | 11.31388 | 16349 ft | 407 kts | 4° |
| 2026-04-30 03:05 | 47.69382 | 11.31628 | 16351 ft | 407 kts | 4° |
| 2026-04-30 03:05 | 47.72275 | 11.31886 | 16352 ft | 407 kts | 4° |
| 2026-04-30 03:05 | 47.75102 | 11.32143 | 16353 ft | 407 kts | 4° |
| 2026-04-30 03:06 | 47.77925 | 11.32399 | 16354 ft | 407 kts | 4° |
| 2026-04-30 03:06 | 47.80754 | 11.32653 | 16336 ft | 407 kts | 4° |
| 2026-04-30 03:06 | 47.83526 | 11.32900 | 16185 ft | 390 kts | 4° |
| 2026-04-30 03:06 | 47.86159 | 11.33133 | 15702 ft | 370 kts | 4° |
| 2026-04-30 03:07 | 47.88674 | 11.33357 | 15032 ft | 356 kts | 4° |
| 2026-04-30 03:07 | 47.91097 | 11.33577 | 14061 ft | 353 kts | 5° |
| 2026-04-30 03:07 | 47.93559 | 11.33801 | 12840 ft | 356 kts | 5° |
| 2026-04-30 03:07 | 47.96033 | 11.34027 | 11717 ft | 356 kts | 5° |
| 2026-04-30 03:08 | 47.98497 | 11.34248 | 10752 ft | 351 kts | 5° |
| 2026-04-30 03:08 | 48.00887 | 11.34460 | 10141 ft | 337 kts | 6° |
| 2026-04-30 03:08 | 48.03156 | 11.34658 | 9890 ft | 314 kts | 6° |
| 2026-04-30 03:08 | 48.05258 | 11.34843 | 9717 ft | 292 kts | 6° |
| 2026-04-30 03:09 | 48.07226 | 11.35097 | 9434 ft | 278 kts | 11° |
| 2026-04-30 03:09 | 48.09126 | 11.35609 | 9070 ft | 276 kts | 14° |
| 2026-04-30 03:09 | 48.11008 | 11.36214 | 8657 ft | 275 kts | 17° |
| 2026-04-30 03:09 | 48.12816 | 11.37048 | 8294 ft | 269 kts | 22° |
| 2026-04-30 03:10 | 48.14561 | 11.37980 | 7913 ft | 263 kts | 23° |
| 2026-04-30 03:10 | 48.16266 | 11.38918 | 7537 ft | 258 kts | 24° |
| 2026-04-30 03:10 | 48.17903 | 11.39812 | 7165 ft | 254 kts | 24° |
| 2026-04-30 03:10 | 48.19279 | 11.40557 | 6871 ft | 249 kts | 24° |
| 2026-04-30 03:11 | 48.20846 | 11.41578 | 6618 ft | 237 kts | 30° |
| 2026-04-30 03:11 | 48.22268 | 11.42686 | 6386 ft | 230 kts | 32° |
| 2026-04-30 03:11 | 48.23669 | 11.43823 | 6122 ft | 228 kts | 33° |
| 2026-04-30 03:11 | 48.25065 | 11.44956 | 5875 ft | 228 kts | 33° |
| 2026-04-30 03:12 | 48.26452 | 11.46077 | 5618 ft | 225 kts | 33° |
| 2026-04-30 03:12 | 48.27803 | 11.47191 | 5359 ft | 218 kts | 33° |
| 2026-04-30 03:12 | 48.29108 | 11.48291 | 5111 ft | 212 kts | 33° |
| 2026-04-30 03:12 | 48.30378 | 11.49364 | 4879 ft | 206 kts | 34° |
| 2026-04-30 03:13 | 48.31556 | 11.50499 | 4643 ft | 197 kts | 48° |
| 2026-04-30 03:13 | 48.32198 | 11.52251 | 4441 ft | 192 kts | 75° |
| 2026-04-30 03:13 | 48.32453 | 11.54217 | 4207 ft | 192 kts | 82° |
| 2026-04-30 03:13 | 48.32620 | 11.56200 | 3939 ft | 190 kts | 84° |
| 2026-04-30 03:14 | 48.32757 | 11.58099 | 3704 ft | 174 kts | 84° |
| 2026-04-30 03:14 | 48.32885 | 11.59832 | 3505 ft | 160 kts | 83° |
| 2026-04-30 03:14 | 48.33012 | 11.61415 | 3296 ft | 146 kts | 83° |
| 2026-04-30 03:14 | 48.33125 | 11.62872 | 3087 ft | 135 kts | 84° |
| 2026-04-30 03:15 | 48.33227 | 11.64229 | 2902 ft | 128 kts | 83° |
| 2026-04-30 03:15 | 48.33330 | 11.65564 | 2747 ft | 128 kts | 83° |
| 2026-04-30 03:15 | 48.33430 | 11.66894 | 2580 ft | 128 kts | 84° |
| 2026-04-30 03:15 | 48.33513 | 11.68222 | 2377 ft | 127 kts | 84° |
| 2026-04-30 03:16 | 48.33606 | 11.69448 | 2296 ft | 112 kts | 83° |
| 2026-04-30 03:16 | 48.33701 | 11.70622 | 2105 ft | 118 kts | 82° |
| 2026-04-30 03:16 | 48.33818 | 11.71821 | 1926 ft | 114 kts | 83° |
| 2026-04-30 03:16 | 48.33910 | 11.73004 | 1783 ft | 112 kts | 83° |
| 2026-04-30 03:17 | 48.33999 | 11.74172 | 1680 ft | 114 kts | 83° |
| 2026-04-30 03:17 | 48.34092 | 11.75358 | 1526 ft | 115 kts | 84° |
| 2026-04-30 03:17 | 48.34174 | 11.76453 | 1491 ft | 89 kts | 85° |
| 2026-04-30 03:17 | 48.34222 | 11.77115 | 1491 ft | 40 kts | 84° |
| 2026-04-30 03:18 | 48.34298 | 11.77485 | 1491 ft | 36 kts | 62° |
| 2026-04-30 03:18 | 48.34416 | 11.77740 | 1491 ft | 29 kts | 54° |
| 2026-04-30 03:18 | 48.34499 | 11.77899 | 1491 ft | 13 kts | 49° |
| 2026-04-30 03:18 | 48.34579 | 11.77918 | 1491 ft | 13 kts | 353° |
| 2026-04-30 03:19 | 48.34669 | 11.77901 | 1491 ft | 14 kts | 353° |
| 2026-04-30 03:19 | 48.34767 | 11.77883 | 1491 ft | 15 kts | 353° |
| 2026-04-30 03:19 | 48.34863 | 11.77857 | 1491 ft | 10 kts | 334° |
| 2026-04-30 03:19 | 48.34873 | 11.77785 | 1491 ft | 7 kts | 265° |
| 2026-04-30 03:20 | 48.34871 | 11.77755 | 1491 ft | 0 kts | 264° |